createdAt,value
2023-03-11T00:01:30.174Z,6.60
2023-03-11T00:04:03.061Z,6.40
2023-03-11T00:06:34.290Z,6.20
2023-03-11T00:09:09.534Z,6.10
2023-03-11T00:11:40.454Z,6.00
2023-03-11T00:14:20.968Z,5.80
2023-03-11T00:16:49.293Z,5.90
2023-03-11T00:19:22.936Z,5.50
2023-03-11T00:21:51.172Z,5.60
2023-03-11T00:24:21.108Z,5.30
2023-03-11T00:26:51.800Z,5.40
2023-03-11T00:29:25.549Z,5.30
2023-03-11T00:32:06.635Z,5.00
2023-03-11T00:34:45.125Z,5.00
2023-03-11T00:37:21.229Z,4.90
2023-03-11T00:39:58.372Z,5.00
2023-03-11T00:42:40.086Z,4.80
2023-03-11T00:45:22.905Z,4.50
2023-03-11T00:48:04.888Z,4.70
2023-03-11T00:50:42.265Z,4.30
2023-03-11T00:53:20.294Z,4.20
2023-03-11T00:56:13.517Z,4.20
2023-03-11T00:58:59.474Z,4.20
2023-03-11T01:01:41.408Z,4.20
2023-03-11T01:04:15.389Z,4.10
2023-03-11T01:06:48.214Z,4.20
2023-03-11T01:09:16.532Z,4.10
2023-03-11T01:12:09.101Z,4.20
2023-03-11T01:14:52.694Z,4.20
2023-03-11T01:17:25.160Z,4.10
2023-03-11T01:20:10.941Z,4.00
2023-03-11T01:22:55.421Z,4.10
2023-03-11T01:25:31.147Z,4.10
2023-03-11T01:28:24.736Z,4.10
2023-03-11T01:31:00.937Z,4.10
2023-03-11T01:33:35.913Z,4.00
2023-03-11T01:36:08.050Z,4.00
2023-03-11T01:38:42.893Z,4.00
2023-03-11T01:41:24.370Z,4.20
2023-03-11T01:44:00.863Z,4.00
2023-03-11T01:47:16.366Z,4.30
2023-03-11T01:49:46.826Z,4.00
2023-03-11T01:52:15.320Z,4.00
2023-03-11T01:54:52.248Z,4.20
2023-03-11T01:57:22.980Z,4.00
2023-03-11T02:00:09.304Z,4.20
2023-03-11T02:02:45.020Z,4.00
2023-03-11T02:05:18.584Z,4.00
2023-03-11T02:07:47.704Z,4.20
2023-03-11T02:10:23.731Z,4.00
2023-03-11T02:13:00.680Z,3.90
2023-03-11T02:15:37.358Z,4.20
2023-03-11T02:18:09.243Z,4.00
2023-03-11T02:20:49.522Z,4.10
2023-03-11T02:23:19.582Z,4.30
2023-03-11T02:25:57.229Z,4.00
2023-03-11T02:28:32.364Z,4.00
2023-03-11T02:31:01.532Z,4.10
2023-03-11T02:33:42.930Z,4.20
2023-03-11T02:36:42.494Z,4.00
2023-03-11T02:39:14.356Z,3.90
2023-03-11T02:41:53.626Z,3.90
2023-03-11T02:44:28.753Z,3.90
2023-03-11T02:47:18.132Z,4.10
2023-03-11T02:49:56.776Z,3.90
2023-03-11T02:52:42.071Z,3.90
2023-03-11T02:55:18.440Z,4.10
2023-03-11T02:57:52.523Z,3.80
2023-03-11T03:00:27.568Z,3.90
2023-03-11T03:03:08.434Z,3.90
2023-03-11T03:26:12.069Z,3.60
2023-03-11T03:28:44.736Z,3.60
2023-03-11T03:31:15.961Z,3.40
2023-03-11T03:33:47.441Z,3.30
2023-03-11T03:36:19.620Z,3.30
2023-03-11T03:39:33.512Z,3.10
2023-03-11T03:42:20.272Z,3.20
2023-03-11T03:44:49.191Z,3.10
2023-03-11T03:47:20.521Z,3.10
2023-03-11T03:50:00.613Z,2.90
2023-03-11T03:52:33.777Z,3.00
2023-03-11T03:55:09.093Z,3.00
2023-03-11T03:57:47.687Z,2.80
2023-03-11T04:00:25.692Z,3.00
2023-03-11T04:03:00.012Z,2.90
2023-03-11T04:05:56.752Z,2.90
2023-03-11T04:08:25.312Z,3.20
2023-03-11T04:10:58.620Z,2.90
2023-03-11T04:13:28.707Z,3.10
2023-03-11T04:15:57.582Z,2.90
2023-03-11T04:18:26.289Z,2.90
2023-03-11T04:20:57.007Z,2.90
2023-03-11T04:23:25.587Z,2.70
2023-03-11T04:25:54.082Z,2.80
2023-03-11T04:28:22.855Z,3.10
2023-03-11T04:30:51.849Z,2.80
2023-03-11T04:33:23.215Z,3.00
2023-03-11T04:35:51.887Z,2.80
2023-03-11T04:38:23.949Z,2.80
2023-03-11T04:40:53.038Z,2.80
2023-03-11T04:43:21.870Z,2.80
2023-03-11T04:45:52.347Z,2.80
2023-03-11T04:48:20.753Z,2.80
2023-03-11T04:50:49.839Z,2.70
2023-03-11T04:53:26.966Z,2.70
2023-03-11T04:55:55.751Z,2.70
2023-03-11T04:58:24.362Z,2.70
2023-03-11T05:00:54.414Z,2.90
2023-03-11T05:03:23.350Z,2.70
2023-03-11T05:05:53.135Z,2.90
2023-03-11T05:08:24.303Z,2.90
2023-03-11T05:10:54.098Z,2.70
2023-03-11T05:13:26.334Z,2.90
2023-03-11T05:15:56.841Z,3.00
2023-03-11T05:18:25.558Z,2.90
2023-03-11T05:20:54.390Z,3.00
2023-03-11T05:23:30.248Z,2.90
2023-03-11T05:26:00.200Z,2.70
2023-03-11T05:28:32.822Z,2.90
2023-03-11T05:31:04.500Z,3.10
2023-03-11T05:33:36.352Z,2.90
2023-03-11T05:36:08.466Z,3.10
2023-03-11T05:38:40.404Z,2.90
2023-03-11T05:41:15.033Z,2.90
2023-03-11T05:43:45.052Z,3.20
2023-03-11T05:46:15.607Z,3.00
2023-03-11T05:48:45.105Z,3.20
2023-03-11T05:51:15.281Z,3.00
2023-03-11T05:53:48.778Z,3.00
2023-03-11T05:56:24.447Z,3.20
2023-03-11T05:58:55.215Z,3.20
2023-03-11T06:01:24.098Z,3.10
2023-03-11T06:03:52.788Z,3.10
2023-03-11T06:06:21.085Z,3.20
2023-03-11T06:08:51.312Z,3.10
2023-03-11T06:11:23.916Z,3.10
2023-03-11T06:13:54.666Z,3.10
2023-03-11T06:16:27.235Z,3.40
2023-03-11T06:19:00.700Z,3.20
2023-03-11T06:21:38.828Z,3.30
2023-03-11T06:24:15.077Z,3.10
2023-03-11T06:26:45.282Z,3.00
2023-03-11T06:29:16.670Z,3.10
2023-03-11T06:31:49.719Z,3.20
2023-03-11T06:34:18.977Z,3.40
2023-03-11T06:36:47.575Z,3.10
2023-03-11T06:39:17.673Z,3.50
2023-03-11T06:41:49.139Z,3.40
2023-03-11T06:44:21.941Z,3.30
2023-03-11T06:46:50.654Z,3.40
2023-03-11T06:49:19.973Z,3.30
2023-03-11T06:51:48.480Z,3.50
2023-03-11T06:54:21.660Z,3.40
2023-03-11T06:56:50.038Z,3.40
2023-03-11T06:59:19.244Z,3.30
2023-03-11T07:01:47.553Z,3.60
2023-03-11T07:04:20.581Z,3.30
2023-03-11T07:06:49.603Z,3.30
2023-03-11T07:09:25.269Z,3.30
2023-03-11T07:11:54.219Z,3.30
2023-03-11T07:14:29.032Z,3.50
2023-03-11T07:16:59.355Z,3.30
2023-03-11T07:19:33.475Z,3.30
2023-03-11T07:22:01.938Z,3.30
2023-03-11T07:24:31.882Z,3.40
2023-03-11T07:27:02.953Z,3.50
2023-03-11T07:29:31.628Z,3.50
2023-03-11T07:32:00.179Z,3.50
2023-03-11T07:34:32.014Z,3.50
2023-03-11T07:37:00.675Z,3.40
2023-03-11T07:39:29.378Z,3.40
2023-03-11T07:41:59.149Z,3.40
2023-03-11T07:44:38.848Z,3.60
2023-03-11T07:47:10.624Z,3.40
2023-03-11T07:49:47.043Z,3.50
2023-03-11T07:52:15.627Z,3.70
2023-03-11T07:55:06.532Z,3.60
2023-03-11T07:57:43.877Z,3.50
2023-03-11T08:00:19.338Z,3.60
2023-03-11T08:02:58.700Z,3.40
2023-03-11T08:05:41.335Z,3.50
2023-03-11T08:08:10.962Z,3.50
2023-03-11T08:10:43.899Z,3.40
2023-03-11T08:13:16.838Z,3.50
2023-03-11T08:15:54.358Z,3.50
2023-03-11T08:18:25.789Z,3.40
2023-03-11T08:20:57.477Z,3.50
2023-03-11T08:23:35.119Z,3.50
2023-03-11T08:26:11.503Z,3.70
2023-03-11T08:28:50.496Z,3.60
2023-03-11T08:31:25.107Z,3.60
2023-03-11T08:33:56.598Z,3.80
2023-03-11T08:36:34.542Z,3.60
2023-03-11T08:39:10.679Z,3.80
2023-03-11T08:41:43.752Z,3.90
2023-03-11T08:44:21.840Z,3.60
2023-03-11T08:46:53.484Z,3.70
2023-03-11T08:49:23.412Z,3.70
2023-03-11T08:51:52.746Z,3.70
2023-03-11T08:54:36.765Z,3.80
2023-03-11T08:57:29.380Z,3.80
2023-03-11T09:00:22.271Z,3.90
2023-03-11T09:03:28.042Z,3.90
2023-03-11T09:09:06.820Z,3.90
2023-03-11T09:11:37.763Z,3.90
2023-03-11T09:14:07.174Z,3.90
2023-03-11T09:16:50.764Z,3.90
2023-03-11T09:19:49.695Z,3.80
2023-03-11T09:25:36.010Z,3.70
2023-03-11T09:28:09.368Z,3.50
2023-03-11T09:30:39.658Z,3.40
2023-03-11T09:37:49.267Z,3.40
2023-03-11T09:43:33.325Z,3.30
2023-03-11T09:46:15.677Z,3.30
2023-03-11T09:48:57.412Z,3.60
2023-03-11T09:54:40.493Z,3.40
2023-03-11T09:57:14.945Z,3.50
2023-03-11T09:59:48.923Z,3.50
2023-03-11T10:02:27.050Z,3.60
2023-03-11T10:05:05.129Z,3.60
2023-03-11T10:07:41.029Z,3.70
2023-03-11T10:10:16.612Z,3.80
2023-03-11T10:13:07.146Z,3.80
2023-03-11T10:15:56.378Z,3.80
2023-03-11T10:18:53.617Z,3.80
2023-03-11T10:21:47.697Z,3.80
2023-03-11T10:24:38.538Z,3.90
2023-03-11T10:27:15.992Z,3.90
2023-03-11T10:29:54.085Z,4.00
2023-03-11T10:32:41.265Z,4.30
2023-03-11T10:35:46.369Z,4.20
2023-03-11T10:38:21.671Z,4.30
2023-03-11T10:44:29.543Z,4.40
2023-03-11T10:47:50.428Z,4.70
2023-03-11T10:50:21.990Z,4.70
2023-03-11T10:53:09.565Z,4.60
2023-03-11T10:55:47.835Z,4.80
2023-03-11T10:58:36.238Z,4.90
2023-03-11T11:01:29.361Z,5.00
2023-03-11T11:04:00.928Z,5.00
2023-03-11T11:06:37.296Z,4.90
2023-03-11T11:09:19.750Z,4.80
2023-03-11T11:12:06.957Z,4.70
2023-03-11T11:18:52.286Z,4.60
2023-03-11T11:25:45.368Z,4.50
2023-03-11T11:49:15.507Z,5.40
2023-03-11T11:51:50.300Z,6.10
2023-03-11T11:54:33.884Z,7.00
2023-03-11T11:57:10.870Z,7.40
2023-03-11T11:59:43.462Z,7.30
2023-03-11T12:03:02.545Z,7.30
2023-03-11T12:05:40.175Z,7.00
2023-03-11T12:27:53.561Z,5.40
2023-03-11T12:34:53.477Z,5.10
2023-03-11T12:37:49.017Z,5.10
2023-03-11T12:41:27.671Z,4.90
2023-03-11T12:44:41.954Z,4.60
2023-03-11T12:48:12.558Z,4.60
2023-03-11T12:50:49.572Z,4.60
2023-03-11T12:56:38.731Z,4.40
2023-03-11T12:59:40.435Z,4.40
2023-03-11T13:02:58.213Z,4.30
2023-03-11T13:05:32.350Z,4.40
2023-03-11T13:11:46.726Z,4.20
2023-03-11T13:14:40.204Z,4.30
2023-03-11T13:17:32.573Z,4.70
2023-03-11T13:20:04.991Z,4.90
2023-03-11T13:27:29.936Z,5.50
2023-03-11T13:30:41.144Z,7.20
2023-03-11T13:33:54.172Z,9.10
2023-03-11T13:48:46.381Z,8.40
2023-03-11T13:51:40.600Z,7.70
2023-03-11T13:55:16.216Z,7.10
2023-03-11T13:57:59.700Z,6.70
2023-03-11T14:00:40.054Z,6.30
2023-03-11T14:03:27.749Z,6.20
2023-03-11T14:06:32.304Z,6.00
2023-03-11T14:09:08.148Z,5.90
2023-03-11T14:11:47.684Z,5.80
2023-03-11T14:14:35.398Z,5.60
2023-03-11T14:17:05.348Z,5.70
2023-03-11T14:19:36.768Z,5.60
2023-03-11T14:22:22.807Z,5.90
2023-03-11T14:25:00.595Z,6.00
2023-03-11T14:27:29.604Z,6.20
2023-03-11T14:30:37.408Z,6.20
2023-03-11T14:33:30.668Z,6.10
2023-03-11T14:36:09.064Z,6.10
2023-03-11T14:38:44.566Z,6.20
2023-03-11T14:41:16.998Z,6.30
2023-03-11T14:43:51.406Z,6.30
2023-03-11T14:46:32.482Z,6.50
2023-03-11T14:52:34.764Z,6.20
2023-03-11T14:55:30.148Z,6.10
2023-03-11T15:16:27.310Z,5.50
2023-03-11T15:23:05.159Z,5.60
2023-03-11T15:30:11.626Z,5.40
2023-03-11T15:33:21.906Z,5.40
2023-03-11T15:35:55.194Z,5.40
2023-03-11T15:39:16.001Z,5.40
2023-03-11T15:41:47.972Z,5.30
2023-03-11T15:44:26.421Z,5.50
2023-03-11T15:46:54.883Z,5.50
2023-03-11T15:49:37.256Z,5.50
2023-03-11T15:52:46.512Z,5.50
2023-03-11T15:55:20.809Z,5.50
2023-03-11T15:57:50.485Z,5.40
2023-03-11T16:00:22.485Z,5.40
2023-03-11T16:16:56.128Z,5.30
2023-03-11T16:19:32.546Z,5.20
2023-03-11T16:25:08.921Z,5.20
2023-03-11T16:27:46.019Z,5.20
2023-03-11T16:30:38.461Z,5.20
2023-03-11T16:33:10.509Z,5.30
2023-03-11T16:35:41.662Z,5.20
2023-03-11T16:38:14.369Z,5.20
2023-03-11T16:40:44.543Z,5.30
2023-03-11T16:43:23.274Z,5.20
2023-03-11T16:46:00.296Z,5.30
2023-03-11T16:52:01.251Z,5.10
2023-03-11T16:55:10.061Z,5.20
2023-03-11T17:03:27.559Z,5.10
2023-03-11T17:06:28.892Z,5.10
2023-03-11T17:50:57.027Z,3.90
2023-03-11T18:00:44.225Z,3.60
2023-03-11T18:05:09.604Z,3.80
2023-03-11T18:07:53.523Z,3.60
2023-03-11T18:10:24.646Z,3.50
2023-03-11T18:16:54.080Z,3.30
2023-03-11T18:19:22.496Z,3.40
2023-03-11T18:25:52.668Z,3.30
2023-03-11T18:28:39.889Z,3.20
2023-03-11T18:32:01.668Z,3.20
2023-03-11T18:34:43.217Z,3.10
2023-03-11T18:37:35.609Z,3.10
2023-03-11T18:40:32.720Z,3.20
2023-03-11T18:47:01.932Z,2.90
2023-03-11T18:50:12.292Z,3.10
2023-03-11T18:53:13.257Z,2.80
2023-03-11T18:56:37.423Z,2.90
2023-03-11T19:02:34.347Z,2.70
2023-03-11T19:05:08.440Z,2.90
2023-03-11T19:07:48.134Z,2.90
2023-03-11T19:10:31.342Z,2.50
2023-03-11T19:16:23.543Z,2.60
2023-03-11T19:22:12.558Z,2.50
2023-03-11T19:24:50.726Z,2.60
2023-03-11T19:27:22.661Z,2.60
2023-03-11T19:30:24.952Z,2.60
2023-03-11T19:33:00.588Z,2.70
2023-03-11T19:36:08.420Z,2.50
2023-03-11T19:38:57.758Z,2.60
2023-03-11T19:41:29.177Z,2.70
2023-03-11T19:44:05.246Z,2.60
2023-03-11T19:46:37.415Z,2.60
2023-03-11T19:49:07.792Z,2.60
2023-03-11T19:51:50.232Z,2.60
2023-03-11T19:54:20.942Z,2.50
2023-03-11T19:56:49.878Z,2.70
2023-03-11T19:59:18.358Z,2.80
2023-03-11T20:01:46.820Z,2.50
2023-03-11T20:04:19.412Z,2.50
2023-03-11T20:06:51.592Z,2.50
2023-03-11T20:09:23.768Z,2.40
2023-03-11T20:11:52.506Z,2.40
2023-03-11T20:14:23.776Z,2.40
2023-03-11T20:16:55.449Z,2.60
2023-03-11T20:25:22.716Z,2.30
2023-03-11T20:27:51.354Z,2.30
2023-03-11T20:30:20.682Z,2.40
2023-03-11T20:32:55.188Z,2.20
2023-03-11T20:35:26.023Z,2.20
2023-03-11T20:37:54.629Z,2.30
2023-03-11T20:40:23.520Z,2.30
2023-03-11T20:42:52.187Z,2.20
2023-03-11T20:45:22.311Z,2.30
2023-03-11T20:47:56.457Z,2.10
2023-03-11T20:50:37.604Z,2.30
2023-03-11T20:53:14.759Z,2.10
2023-03-11T20:55:54.132Z,2.10
2023-03-11T20:58:22.555Z,2.10
2023-03-11T21:00:53.382Z,2.20
2023-03-11T21:03:29.640Z,2.20
2023-03-11T21:06:00.803Z,2.00
2023-03-11T21:08:40.764Z,2.00
2023-03-11T21:11:09.909Z,2.00
2023-03-11T21:13:38.351Z,2.10
2023-03-11T21:16:11.033Z,2.00
2023-03-11T21:18:40.081Z,1.80
2023-03-11T21:21:11.806Z,2.20
2023-03-11T21:23:41.015Z,2.00
2023-03-11T21:26:11.131Z,1.90
2023-03-11T21:28:48.730Z,1.90
2023-03-11T21:44:46.377Z,2.00
2023-03-11T21:47:17.601Z,1.70
2023-03-11T21:49:46.292Z,1.50
2023-03-11T21:52:15.195Z,1.50
2023-03-11T21:54:43.699Z,1.50
2023-03-11T21:57:12.281Z,1.70
2023-03-11T21:59:40.736Z,1.80
2023-03-11T22:02:17.303Z,1.70
2023-03-11T22:04:46.157Z,1.60
2023-03-11T22:07:14.535Z,1.70
2023-03-11T22:09:43.088Z,1.80
2023-03-11T22:12:12.020Z,1.60
2023-03-11T22:14:40.700Z,1.70
2023-03-11T22:17:09.276Z,1.70
2023-03-11T22:19:58.290Z,1.70
2023-03-11T22:22:26.825Z,1.80
2023-03-11T22:24:55.266Z,1.90
2023-03-11T22:27:26.264Z,1.90
2023-03-11T22:29:54.695Z,1.70
2023-03-11T22:32:23.333Z,1.80
2023-03-11T22:34:53.192Z,1.90
2023-03-11T22:37:21.741Z,1.70
2023-03-11T22:39:50.096Z,2.00
2023-03-11T22:42:18.346Z,1.80
2023-03-11T22:44:46.973Z,1.80
2023-03-11T22:47:15.626Z,2.00
2023-03-11T22:49:43.972Z,1.90
2023-03-11T22:52:13.741Z,1.80
2023-03-11T22:54:42.784Z,1.90
2023-03-11T22:57:11.202Z,1.70
2023-03-11T22:59:40.584Z,1.80
2023-03-11T23:02:09.304Z,1.90
2023-03-11T23:04:39.575Z,1.70
2023-03-11T23:07:08.067Z,1.80
2023-03-11T23:09:39.481Z,1.90
2023-03-11T23:12:08.647Z,1.90
2023-03-11T23:14:45.081Z,1.80
2023-03-11T23:17:13.721Z,1.80
2023-03-11T23:19:42.015Z,1.90
2023-03-11T23:22:10.460Z,1.90
2023-03-11T23:24:50.355Z,1.80
2023-03-11T23:27:18.625Z,1.90
2023-03-11T23:29:48.024Z,2.10
2023-03-11T23:32:16.617Z,2.00
2023-03-11T23:34:46.197Z,1.90
2023-03-11T23:37:14.614Z,2.00
2023-03-11T23:39:44.488Z,2.10
2023-03-11T23:42:25.070Z,2.10
2023-03-11T23:44:54.114Z,2.10
2023-03-11T23:47:22.266Z,1.90
2023-03-11T23:49:50.558Z,1.90
2023-03-11T23:52:18.882Z,1.90
2023-03-11T23:54:48.870Z,1.90
2023-03-11T23:57:17.197Z,1.90
2023-03-11T23:59:45.576Z,1.90
